Time;durP1;ratioP1;P1;durP2;ratioP2;P2;SDS_P1;SDS_P2;PMS_P1;PMS_P2;Temp;Humidity;BMP_temperature;BMP_pressure;BME280_temperature;BME280_humidity;BME280_pressure;Samples;Min_cycle;Max_cycle;Signal;HPM_P1;HPM_P2
2023/12/22 00:00:12;;;;;;;20.25;9.82;;;;;;;4.43;60.72;98234.28;3136035;28;20131;-71
2023/12/22 00:01:43;;;;;;;20.80;9.73;;;;;;;4.43;60.65;98238.59;3134402;28;20484;-71
2023/12/22 00:03:15;;;;;;;19.40;9.23;;;;;;;4.42;60.83;98237.78;3132398;28;20139;-71
2023/12/22 00:04:46;;;;;;;21.00;9.93;;;;;;;4.41;60.82;98237.84;3132775;28;20068;-71
2023/12/22 00:06:18;;;;;;;23.63;10.45;;;;;;;4.40;60.90;98239.56;3133626;28;20541;-71
2023/12/22 00:07:48;;;;;;;21.70;9.82;;;;;;;4.38;61.04;98235.38;3133905;28;20045;-72
2023/12/22 00:09:20;;;;;;;21.15;10.27;;;;;;;4.39;60.98;98230.19;3132401;28;20510;-72
2023/12/22 00:10:51;;;;;;;19.83;10.05;;;;;;;4.38;61.12;98227.66;3132668;28;20053;-72
2023/12/22 00:12:23;;;;;;;18.15;9.02;;;;;;;4.36;61.11;98225.16;3132781;28;20060;-73
2023/12/22 00:13:55;;;;;;;21.65;10.18;;;;;;;4.37;60.96;98223.41;3136522;28;20048;-73
2023/12/22 00:15:27;;;;;;;18.95;9.45;;;;;;;4.31;61.13;98215.06;3132672;28;20445;-72
2023/12/22 00:16:57;;;;;;;19.08;9.40;;;;;;;4.30;60.96;98204.84;3132267;28;20513;-72
2023/12/22 00:18:29;;;;;;;22.27;9.63;;;;;;;4.29;61.30;98206.56;3132615;28;20053;-73
2023/12/22 00:20:02;;;;;;;22.00;9.55;;;;;;;4.29;61.40;98201.44;3135136;28;20465;-73
2023/12/22 00:21:34;;;;;;;20.35;9.65;;;;;;;4.28;61.32;98211.78;3132829;28;20472;-71
2023/12/22 00:23:05;;;;;;;18.73;9.65;;;;;;;4.22;61.34;98197.44;3136235;28;20041;-73
2023/12/22 00:24:37;;;;;;;23.90;9.95;;;;;;;4.28;61.31;98204.88;3132193;28;20060;-73
2023/12/22 00:26:08;;;;;;;25.00;11.32;;;;;;;4.27;61.33;98203.22;3133490;28;20076;-71
2023/12/22 00:27:39;;;;;;;22.23;11.90;;;;;;;4.26;61.47;98211.00;3134331;28;20040;-72
2023/12/22 00:29:11;;;;;;;25.30;12.77;;;;;;;4.24;61.53;98208.53;3132788;28;20521;-72
2023/12/22 00:30:43;;;;;;;24.13;12.10;;;;;;;4.24;61.50;98212.84;3132664;28;20060;-72
2023/12/22 00:32:14;;;;;;;20.95;9.55;;;;;;;4.23;61.64;98221.47;3134393;28;20378;-71
2023/12/22 00:33:46;;;;;;;24.52;11.32;;;;;;;4.21;61.63;98215.56;3137091;28;20044;-71
2023/12/22 00:35:17;;;;;;;26.75;10.57;;;;;;;4.20;61.75;98217.31;3132448;28;20049;-72
2023/12/22 00:36:49;;;;;;;24.30;10.07;;;;;;;4.19;61.73;98212.19;3132526;28;20577;-72
2023/12/22 00:38:20;;;;;;;29.00;10.95;;;;;;;4.17;61.72;98207.13;3125871;28;20441;-70
2023/12/22 00:39:51;;;;;;;23.20;10.73;;;;;;;4.09;61.72;98191.19;3134825;28;20044;-72
2023/12/22 00:41:23;;;;;;;19.83;9.88;;;;;;;4.14;61.75;98207.28;3132136;28;20056;-70
2023/12/22 00:42:55;;;;;;;22.73;10.05;;;;;;;4.14;61.84;98212.44;3120319;28;20060;-70
2023/12/22 00:44:29;;;;;;;21.98;10.20;;;;;;;4.12;61.86;98214.22;3131674;28;20445;-74
2023/12/22 00:46:01;;;;;;;21.40;9.25;;;;;;;4.08;61.96;98218.69;3136658;28;20057;-72
2023/12/22 00:47:34;;;;;;;23.30;9.68;;;;;;;4.07;62.11;98213.59;3131322;28;20056;-71
2023/12/22 00:49:07;;;;;;;22.23;9.30;;;;;;;4.04;62.09;98211.97;3131974;28;20405;-70
2023/12/22 00:50:38;;;;;;;22.83;9.53;;;;;;;4.00;62.26;98215.59;3132309;28;20084;-73
2023/12/22 00:52:09;;;;;;;20.35;8.40;;;;;;;3.86;62.21;98197.34;3136259;28;20298;-73
2023/12/22 00:53:40;;;;;;;19.38;9.70;;;;;;;3.93;62.43;98215.91;3134011;28;20430;-73
2023/12/22 00:55:12;;;;;;;21.25;9.75;;;;;;;3.95;62.39;98219.28;3132132;28;20048;-72
2023/12/22 00:56:43;;;;;;;23.25;9.77;;;;;;;3.93;62.37;98213.34;3132259;28;20809;-72
2023/12/22 00:58:14;;;;;;;18.88;9.30;;;;;;;3.90;62.38;98216.88;3134049;28;20059;-71
2023/12/22 00:59:47;;;;;;;19.40;9.52;;;;;;;3.83;62.49;98203.44;3134210;28;20075;-70
2023/12/22 01:01:19;;;;;;;25.08;10.35;;;;;;;3.80;62.63;98208.72;3130266;28;20052;-70
2023/12/22 01:02:50;;;;;;;20.40;9.05;;;;;;;3.79;62.62;98208.81;3122670;28;20049;-71
2023/12/22 01:04:22;;;;;;;26.23;9.05;;;;;;;3.71;62.67;98198.84;3132906;28;20048;-72
2023/12/22 01:05:53;;;;;;;20.38;9.00;;;;;;;3.64;62.72;98182.00;3135572;28;20060;-70
2023/12/22 01:07:25;;;;;;;21.30;9.45;;;;;;;3.75;62.83;98189.22;3131955;28;20402;-70
2023/12/22 01:08:56;;;;;;;24.60;10.25;;;;;;;3.73;62.96;98184.16;3131747;28;20541;-70
2023/12/22 01:10:28;;;;;;;20.88;8.63;;;;;;;3.74;63.04;98190.16;3132271;28;20087;-71
2023/12/22 01:11:59;;;;;;;23.38;9.23;;;;;;;3.71;63.13;98196.25;3135301;28;20044;-72
2023/12/22 01:13:30;;;;;;;32.35;10.23;;;;;;;3.67;63.30;98199.00;3132309;28;20064;-70
2023/12/22 01:15:03;;;;;;;23.60;10.70;;;;;;;3.69;63.29;98210.09;3132274;28;20049;-70
2023/12/22 01:16:35;;;;;;;27.92;11.25;;;;;;;3.60;63.50;98204.44;3131885;28;20481;-68
2023/12/22 01:18:06;;;;;;;22.75;10.65;;;;;;;3.58;63.59;98203.69;3134849;28;20048;-69
2023/12/22 01:19:38;;;;;;;26.00;11.00;;;;;;;3.54;63.88;98198.72;3132134;28;20060;-70
2023/12/22 01:21:08;;;;;;;27.33;10.57;;;;;;;3.50;64.01;98189.47;3131375;28;20532;-68
2023/12/22 01:22:40;;;;;;;21.30;9.70;;;;;;;3.52;64.00;98193.66;3133148;28;20056;-66
2023/12/22 01:24:11;;;;;;;23.35;9.98;;;;;;;3.51;63.81;98191.13;3132789;28;20059;-67
2023/12/22 01:25:43;;;;;;;19.92;9.13;;;;;;;3.50;63.98;98177.41;3133361;28;20052;-65
2023/12/22 01:27:14;;;;;;;21.85;9.32;;;;;;;3.49;64.11;98174.91;3131639;28;20053;-68
2023/12/22 01:28:45;;;;;;;22.23;10.38;;;;;;;3.49;64.12;98172.31;3131363;28;20049;-67
2023/12/22 01:30:18;;;;;;;24.45;9.85;;;;;;;3.50;64.37;98174.00;3132569;28;20446;-67
2023/12/22 01:31:49;;;;;;;20.60;9.50;;;;;;;3.49;64.37;98169.75;3134854;28;20064;-67
2023/12/22 01:33:21;;;;;;;23.80;8.98;;;;;;;3.47;64.33;98169.84;3131529;28;20053;-67
2023/12/22 01:34:52;;;;;;;22.50;8.98;;;;;;;3.48;64.26;98162.94;3131517;28;20493;-66
2023/12/22 01:36:23;;;;;;;22.15;9.88;;;;;;;3.13;64.46;98108.66;3120659;28;20060;-67
2023/12/22 01:37:56;;;;;;;23.05;9.52;;;;;;;3.46;64.45;98155.31;3135281;28;20053;-67
2023/12/22 01:39:27;;;;;;;21.35;9.30;;;;;;;3.42;64.69;98157.16;3131162;28;20139;-67
2023/12/22 01:40:59;;;;;;;22.48;9.95;;;;;;;3.38;64.85;98150.47;3131643;28;20053;-67
2023/12/22 01:42:30;;;;;;;21.17;9.82;;;;;;;3.38;65.00;98158.19;3131576;28;20376;-68
2023/12/22 01:44:01;;;;;;;19.60;8.80;;;;;;;3.37;65.03;98146.22;3135604;28;20056;-67
2023/12/22 01:45:34;;;;;;;17.75;8.38;;;;;;;3.37;65.26;98135.94;3132770;28;20056;-65
2023/12/22 01:47:05;;;;;;;22.50;9.55;;;;;;;3.35;65.09;98135.16;3131568;28;20140;-65
2023/12/22 01:48:37;;;;;;;15.68;7.43;;;;;;;3.36;65.12;98136.81;3131594;28;20060;-66
2023/12/22 01:50:11;;;;;;;18.10;8.52;;;;;;;3.37;65.09;98138.50;3133619;28;20057;-65
2023/12/22 01:51:42;;;;;;;21.92;9.93;;;;;;;3.39;65.05;98136.69;3134757;28;20048;-66
2023/12/22 01:53:14;;;;;;;19.17;9.57;;;;;;;3.42;65.03;98133.16;3131634;28;20045;-65
2023/12/22 01:54:45;;;;;;;21.38;10.23;;;;;;;3.41;64.92;98129.75;3131465;28;20053;-67
2023/12/22 01:56:17;;;;;;;18.50;9.15;;;;;;;3.43;65.01;98127.09;3132496;28;20062;-66
2023/12/22 01:57:49;;;;;;;26.48;9.75;;;;;;;3.44;65.01;98133.09;3133204;28;20045;-66
2023/12/22 01:59:20;;;;;;;23.17;10.05;;;;;;;3.45;64.95;98129.63;3131570;28;20060;-67
2023/12/22 02:00:54;;;;;;;18.30;9.07;;;;;;;3.46;64.95;98136.44;3131611;28;20049;-66
2023/12/22 02:02:26;;;;;;;23.67;9.88;;;;;;;3.45;64.87;98134.75;3124653;28;20057;-67
2023/12/22 02:03:59;;;;;;;21.42;9.55;;;;;;;3.45;64.89;98117.59;3136784;28;20075;-66
2023/12/22 02:05:30;;;;;;;19.58;8.60;;;;;;;3.40;65.05;98107.50;3131239;28;20052;-70
2023/12/22 02:07:03;;;;;;;17.95;9.23;;;;;;;3.44;65.08;98113.34;3131356;28;20062;-71
2023/12/22 02:08:36;;;;;;;18.73;9.13;;;;;;;3.32;65.22;98108.72;3131742;28;20072;-71
2023/12/22 02:10:08;;;;;;;22.75;9.00;;;;;;;3.42;65.07;98110.81;3136549;28;20048;-72
2023/12/22 02:11:40;;;;;;;17.05;9.25;;;;;;;3.43;65.05;98111.66;3130804;28;20060;-71
2023/12/22 02:13:11;;;;;;;20.73;9.52;;;;;;;3.06;65.13;98048.13;3131288;28;20056;-71
2023/12/22 02:14:44;;;;;;;20.88;9.55;;;;;;;3.45;65.01;98109.03;3131590;28;20057;-71
2023/12/22 02:16:20;;;;;;;17.80;8.90;;;;;;;3.47;65.10;98118.38;3134335;28;20558;-75
2023/12/22 02:17:59;;;;;;;19.58;9.65;;;;;;;3.47;65.10;98113.22;3132028;28;20095;-73
2023/12/22 02:19:42;;;;;;;21.73;9.60;;;;;;;3.45;64.94;98103.88;3131192;28;20053;-73
2023/12/22 02:21:14;;;;;;;19.88;9.27;;;;;;;3.29;65.05;98070.28;3131494;28;20049;-73
2023/12/22 02:22:51;;;;;;;20.95;10.05;;;;;;;3.49;64.94;98108.84;3135491;28;20068;-73
2023/12/22 02:24:23;;;;;;;19.33;9.32;;;;;;;3.48;65.05;98114.03;3130022;28;20041;-74
2023/12/22 02:26:04;;;;;;;20.13;9.63;;;;;;;3.47;65.11;98114.97;3131806;28;20049;-74
2023/12/22 02:27:41;;;;;;;21.35;9.63;;;;;;;3.48;65.08;98114.88;3131176;28;20064;-74
2023/12/22 02:29:15;;;;;;;20.63;9.20;;;;;;;3.49;64.99;98110.56;3133732;28;20059;-72
2023/12/22 02:30:54;;;;;;;21.23;9.45;;;;;;;3.51;64.99;98104.44;3131433;28;20061;-71
2023/12/22 02:32:32;;;;;;;21.00;9.50;;;;;;;3.50;65.00;98095.06;3131587;28;20055;-73
2023/12/22 02:34:08;;;;;;;17.42;8.98;;;;;;;2.64;64.87;97952.19;3131210;28;20179;-70
2023/12/22 02:35:43;;;;;;;20.33;9.38;;;;;;;3.49;65.03;98098.56;3134428;28;20054;-72
2023/12/22 02:37:14;;;;;;;17.50;8.90;;;;;;;3.52;65.13;98098.41;3131886;28;20049;-72
2023/12/22 02:38:50;;;;;;;23.98;10.02;;;;;;;3.52;65.04;98087.25;3131261;28;20158;-72
2023/12/22 02:40:22;;;;;;;22.63;10.35;;;;;;;3.54;65.05;98078.56;3131531;28;20136;-72
2023/12/22 02:41:54;;;;;;;20.27;9.23;;;;;;;3.56;65.05;98070.81;3129267;28;20060;-73
2023/12/22 02:43:24;;;;;;;20.05;8.85;;;;;;;3.57;65.08;98078.44;3127083;28;20052;-72
2023/12/22 02:44:57;;;;;;;17.27;8.48;;;;;;;3.57;65.08;98083.59;3131145;28;20502;-72
2023/12/22 02:46:28;;;;;;;18.63;8.13;;;;;;;3.56;65.02;98097.38;3131540;28;20059;-72
2023/12/22 02:48:00;;;;;;;19.33;9.10;;;;;;;3.57;65.08;98093.06;3132430;28;20064;-73
2023/12/22 02:49:31;;;;;;;18.20;8.60;;;;;;;3.49;65.04;98083.13;3137792;28;20389;-72
2023/12/22 02:51:03;;;;;;;20.38;9.40;;;;;;;3.57;65.01;98087.91;3133492;28;20060;-72
2023/12/22 02:52:34;;;;;;;20.65;9.52;;;;;;;3.58;65.15;98092.13;3133950;28;20064;-72
2023/12/22 02:54:07;;;;;;;18.98;8.05;;;;;;;3.59;64.98;98091.25;3134302;28;20053;-73
2023/12/22 02:55:37;;;;;;;19.55;8.88;;;;;;;3.57;65.17;98088.72;3136421;28;20500;-73
2023/12/22 02:57:09;;;;;;;20.60;8.85;;;;;;;3.59;65.13;98086.09;3133527;28;20056;-68
2023/12/22 02:58:40;;;;;;;16.80;8.57;;;;;;;3.60;65.13;98093.75;3133472;28;20546;-69
2023/12/22 03:00:13;;;;;;;19.42;8.73;;;;;;;3.55;65.03;98093.13;3133758;28;20056;-74
2023/12/22 03:01:43;;;;;;;18.43;9.03;;;;;;;3.60;65.11;98098.06;3134251;28;20041;-74
2023/12/22 03:03:15;;;;;;;18.60;8.95;;;;;;;3.61;65.17;98094.59;3134637;28;20053;-74
2023/12/22 03:04:47;;;;;;;19.45;9.50;;;;;;;3.60;65.16;98096.31;3133378;28;20095;-76
2023/12/22 03:06:18;;;;;;;16.90;8.90;;;;;;;3.58;65.26;98097.28;3133557;28;20059;-73
2023/12/22 03:07:49;;;;;;;17.35;8.75;;;;;;;3.32;65.19;98050.38;3133650;28;20052;-71
2023/12/22 03:09:22;;;;;;;19.88;9.00;;;;;;;3.63;65.13;98108.22;3131179;28;20077;-73
2023/12/22 03:10:53;;;;;;;19.33;8.98;;;;;;;3.59;65.16;98101.56;3133350;28;20053;-73
2023/12/22 03:12:24;;;;;;;17.98;8.40;;;;;;;3.61;65.39;98110.06;3133074;28;20445;-70
2023/12/22 03:13:56;;;;;;;17.35;8.00;;;;;;;3.63;65.34;98103.06;3134250;28;20245;-71
2023/12/22 03:15:27;;;;;;;19.58;9.27;;;;;;;3.63;65.36;98113.38;3135505;28;20053;-70
2023/12/22 03:16:59;;;;;;;19.70;9.25;;;;;;;3.61;65.28;98099.75;3133268;28;20056;-73
2023/12/22 03:18:29;;;;;;;22.60;9.27;;;;;;;3.64;65.32;98103.03;3133148;28;20063;-73
2023/12/22 03:20:01;;;;;;;21.15;9.18;;;;;;;3.60;65.26;98090.34;3133187;28;20053;-72
2023/12/22 03:21:32;;;;;;;22.00;9.25;;;;;;;3.60;65.38;98090.34;3134959;28;20052;-73
2023/12/22 03:23:04;;;;;;;21.38;10.55;;;;;;;3.62;65.43;98088.53;3136822;28;20056;-79
2023/12/22 03:24:37;;;;;;;19.80;8.88;;;;;;;3.63;65.32;98090.19;3132912;28;20045;-73
2023/12/22 03:26:08;;;;;;;18.50;8.68;;;;;;;3.61;65.43;98086.88;3132899;28;20156;-69
2023/12/22 03:27:39;;;;;;;21.10;9.43;;;;;;;3.55;65.51;98080.25;3133465;28;20059;-73
2023/12/22 03:29:11;;;;;;;20.20;9.32;;;;;;;3.40;65.50;98061.19;3132962;28;20049;-68
2023/12/22 03:30:42;;;;;;;21.30;9.32;;;;;;;3.52;65.56;98089.84;3132922;28;20069;-69
2023/12/22 03:32:14;;;;;;;21.75;10.20;;;;;;;3.41;65.75;98087.75;3133248;28;20465;-71
2023/12/22 03:33:44;;;;;;;20.60;10.05;;;;;;;3.33;65.88;98094.97;3134381;28;20126;-70
2023/12/22 03:35:16;;;;;;;20.05;8.93;;;;;;;3.29;66.03;98099.41;3133616;28;20041;-70
2023/12/22 03:36:48;;;;;;;21.25;9.48;;;;;;;3.24;66.15;98096.19;3133110;28;20104;-70
2023/12/22 03:38:20;;;;;;;19.73;9.60;;;;;;;3.21;66.06;98096.31;3133129;28;20541;-70
2023/12/22 03:39:52;;;;;;;16.85;8.77;;;;;;;3.13;66.17;98085.50;3134648;28;20059;-75
2023/12/22 03:41:24;;;;;;;20.30;9.30;;;;;;;3.16;66.12;98087.94;3134635;28;20568;-74
2023/12/22 03:42:55;;;;;;;22.30;9.90;;;;;;;3.19;66.05;98095.53;3132802;28;20045;-75
2023/12/22 03:44:27;;;;;;;19.73;9.18;;;;;;;3.19;66.04;98093.81;3132886;28;20505;-70
2023/12/22 03:45:57;;;;;;;19.45;8.35;;;;;;;3.20;66.00;98084.38;3129820;28;20049;-68
2023/12/22 03:47:29;;;;;;;16.63;8.63;;;;;;;3.21;65.92;98073.16;3127211;28;20542;-69
2023/12/22 03:49:00;;;;;;;18.08;8.82;;;;;;;3.19;66.01;98057.81;3132655;28;20067;-69
2023/12/22 03:50:32;;;;;;;20.70;9.50;;;;;;;3.22;65.96;98054.25;3133087;28;20518;-68
2023/12/22 03:52:03;;;;;;;20.23;8.57;;;;;;;3.24;66.00;98060.16;3131815;28;20051;-72
2023/12/22 03:53:35;;;;;;;18.30;9.02;;;;;;;3.25;65.92;98056.69;3126261;28;20131;-70
2023/12/22 03:55:07;;;;;;;19.08;9.23;;;;;;;3.26;65.90;98054.97;3132616;28;20063;-69
2023/12/22 03:56:39;;;;;;;20.52;10.18;;;;;;;3.26;66.02;98058.38;3132551;28;20079;-71
2023/12/22 03:58:11;;;;;;;21.95;9.95;;;;;;;3.28;66.05;98061.69;3132361;28;20056;-72
2023/12/22 03:59:43;;;;;;;18.90;9.43;;;;;;;3.26;65.95;98047.25;3125096;28;20045;-73
2023/12/22 04:01:15;;;;;;;21.05;9.35;;;;;;;3.31;66.04;98042.72;3129058;28;20546;-71
2023/12/22 04:02:46;;;;;;;21.35;9.55;;;;;;;3.32;66.10;98042.66;3122051;28;20053;-72
2023/12/22 04:04:18;;;;;;;23.67;9.52;;;;;;;3.34;66.08;98051.16;3132875;28;20057;-73
2023/12/22 04:05:49;;;;;;;18.85;8.82;;;;;;;3.27;65.99;98036.06;3127161;28;20049;-70
2023/12/22 04:07:20;;;;;;;21.20;11.20;;;;;;;3.39;66.00;98056.09;3130215;28;20053;-71
2023/12/22 04:08:51;;;;;;;24.10;12.02;;;;;;;3.40;66.05;98047.47;3132722;28;20470;-71
2023/12/22 04:10:24;;;;;;;21.45;10.73;;;;;;;3.42;65.99;98037.94;3132628;28;20183;-71
2023/12/22 04:11:55;;;;;;;19.30;9.85;;;;;;;3.42;66.00;98031.06;3129460;28;20045;-71
2023/12/22 04:13:27;;;;;;;20.35;8.85;;;;;;;3.43;66.05;98039.59;3130613;28;20056;-69
2023/12/22 04:14:58;;;;;;;16.95;8.52;;;;;;;3.04;65.97;97981.31;3132476;28;20095;-68
2023/12/22 04:16:29;;;;;;;22.02;9.75;;;;;;;3.46;65.92;98025.78;3132376;28;20132;-70
2023/12/22 04:18:00;;;;;;;19.80;9.13;;;;;;;3.48;65.88;98024.81;3131743;28;20049;-71
2023/12/22 04:19:32;;;;;;;18.83;8.55;;;;;;;3.50;65.74;98035.88;3122219;28;20045;-71
2023/12/22 04:21:03;;;;;;;18.30;9.07;;;;;;;3.50;65.77;98029.91;3131914;28;20048;-71
2023/12/22 04:22:35;;;;;;;21.02;8.65;;;;;;;3.52;65.82;98031.50;3134384;28;20132;-73
2023/12/22 04:24:06;;;;;;;18.13;9.32;;;;;;;3.50;65.74;98032.47;3132132;28;20445;-72
2023/12/22 04:25:39;;;;;;;27.20;12.38;;;;;;;3.55;65.78;98030.50;3127076;28;20041;-70
2023/12/22 04:27:10;;;;;;;26.10;11.88;;;;;;;3.54;65.79;98016.81;3129349;28;20450;-72
2023/12/22 04:28:41;;;;;;;21.27;10.70;;;;;;;3.56;65.72;98029.63;3131979;28;20056;-72
2023/12/22 04:30:12;;;;;;;22.25;10.32;;;;;;;3.58;65.77;98038.09;3132770;28;20056;-71
2023/12/22 04:31:44;;;;;;;23.23;11.27;;;;;;;3.60;65.79;98028.56;3127109;28;20068;-71
2023/12/22 04:33:15;;;;;;;20.65;9.80;;;;;;;3.60;65.91;98028.56;3127859;28;20053;-72
2023/12/22 04:34:47;;;;;;;21.45;9.65;;;;;;;3.59;65.81;98034.63;3132220;28;20080;-72
2023/12/22 04:36:18;;;;;;;22.48;9.43;;;;;;;3.57;65.96;98029.53;3132530;28;20517;-72
2023/12/22 04:37:49;;;;;;;22.88;10.15;;;;;;;3.58;65.98;98038.09;3133036;28;20069;-73
2023/12/22 04:39:21;;;;;;;20.92;9.05;;;;;;;3.59;66.05;98042.34;3135030;28;20059;-74
2023/12/22 04:40:53;;;;;;;21.48;9.80;;;;;;;3.62;65.99;98037.06;3132180;28;20097;-74
2023/12/22 04:42:26;;;;;;;21.60;10.60;;;;;;;3.64;66.00;98040.41;3132207;28;20080;-72
2023/12/22 04:43:57;;;;;;;25.67;11.05;;;;;;;3.64;66.09;98038.66;3131044;28;20045;-74
2023/12/22 04:45:28;;;;;;;21.63;9.93;;;;;;;3.65;66.06;98032.59;3123713;28;20045;-74
2023/12/22 04:47:00;;;;;;;23.80;11.25;;;;;;;3.68;66.08;98038.53;3131681;28;20132;-70
2023/12/22 04:48:32;;;;;;;20.65;9.95;;;;;;;3.30;66.06;97974.19;3132287;28;20481;-67
2023/12/22 04:50:05;;;;;;;24.15;11.85;;;;;;;3.66;66.03;98030.84;3131776;28;20139;-67
2023/12/22 04:51:36;;;;;;;27.33;11.20;;;;;;;3.40;66.12;97991.72;3132152;28;20135;-67
2023/12/22 04:53:07;;;;;;;31.63;11.20;;;;;;;3.69;66.19;98035.03;3131955;28;20519;-67
2023/12/22 04:54:38;;;;;;;24.23;11.57;;;;;;;3.70;66.15;98032.41;3132101;28;20049;-63
2023/12/22 04:56:11;;;;;;;29.25;13.65;;;;;;;3.72;66.05;98040.88;3131839;28;20053;-62
2023/12/22 04:57:42;;;;;;;38.17;15.48;;;;;;;3.71;66.21;98034.06;3131272;28;20144;-67
2023/12/22 04:59:14;;;;;;;47.58;20.80;;;;;;;3.72;66.11;98030.56;3132171;28;20059;-70
2023/12/22 05:00:44;;;;;;;82.82;37.65;;;;;;;3.75;66.33;98029.59;3131531;28;20399;-67
2023/12/22 05:02:16;;;;;;;47.60;22.38;;;;;;;3.72;66.21;98024.59;3129527;28;20053;-66
2023/12/22 05:03:47;;;;;;;48.70;21.52;;;;;;;3.70;66.26;98018.69;3132079;28;20057;-62
2023/12/22 05:05:19;;;;;;;46.22;22.58;;;;;;;3.81;66.22;98037.06;3131669;28;20040;-65
2023/12/22 05:06:49;;;;;;;24.38;11.73;;;;;;;3.80;66.22;98032.81;3131201;28;20513;-67
2023/12/22 05:08:21;;;;;;;24.98;11.98;;;;;;;3.78;66.32;98035.44;3131940;28;20053;-66
2023/12/22 05:09:54;;;;;;;22.45;11.43;;;;;;;3.71;66.26;98038.38;3131892;28;20045;-66
2023/12/22 05:11:27;;;;;;;23.77;10.73;;;;;;;3.34;66.31;97981.69;3131508;28;20048;-67
2023/12/22 05:12:58;;;;;;;22.95;11.10;;;;;;;3.70;66.35;98034.13;3131640;28;20045;-72
2023/12/22 05:14:30;;;;;;;25.90;10.50;;;;;;;3.73;66.37;98040.00;3131801;28;20098;-70
2023/12/22 05:16:01;;;;;;;23.45;11.10;;;;;;;3.70;66.42;98034.97;3132225;28;20049;-66
2023/12/22 05:17:33;;;;;;;22.35;10.15;;;;;;;3.67;66.50;98042.84;3131555;28;20057;-68
2023/12/22 05:19:05;;;;;;;23.95;10.32;;;;;;;3.62;66.71;98039.63;3131504;28;20055;-66
2023/12/22 05:20:36;;;;;;;25.65;11.60;;;;;;;3.61;66.75;98027.69;3132026;28;20557;-68
2023/12/22 05:22:07;;;;;;;28.60;11.82;;;;;;;3.59;66.92;98024.34;3136211;28;20049;-66
2023/12/22 05:23:38;;;;;;;33.88;14.95;;;;;;;3.58;67.01;98030.38;3132068;28;20067;-67
2023/12/22 05:25:10;;;;;;;80.93;32.47;;;;;;;3.56;66.94;98032.19;3131987;28;20048;-63
2023/12/22 05:26:44;;;;;;;28.30;12.40;;;;;;;3.60;66.80;98020.84;3131606;28;20051;-62
2023/12/22 05:28:14;;;;;;;23.23;12.00;;;;;;;3.62;67.02;98024.19;3131721;28;20544;-64
2023/12/22 05:29:47;;;;;;;29.05;13.00;;;;;;;3.58;66.96;98026.06;3131756;28;20056;-62
2023/12/22 05:31:19;;;;;;;23.42;11.93;;;;;;;3.56;67.07;98027.03;3131401;28;20071;-69
2023/12/22 05:32:51;;;;;;;25.95;12.00;;;;;;;3.55;67.22;98020.22;3131386;28;20076;-64
2023/12/22 05:34:22;;;;;;;25.98;12.20;;;;;;;2.94;67.14;97934.59;3131874;28;20155;-64
2023/12/22 05:35:54;;;;;;;29.55;12.70;;;;;;;3.50;67.12;98025.56;3130887;28;20150;-67
2023/12/22 05:39:29;;;;;;;29.83;12.52;;;;;;;3.32;67.50;98027.25;3111738;28;20137;-65
2023/12/22 05:41:00;;;;;;;26.60;12.15;;;;;;;3.36;67.45;98030.50;3130903;28;20057;-71
2023/12/22 05:42:33;;;;;;;26.75;11.98;;;;;;;3.36;67.47;98028.75;3131167;28;20048;-68
2023/12/22 05:44:04;;;;;;;20.20;11.25;;;;;;;3.34;67.50;98040.00;3131129;28;20053;-68
2023/12/22 05:45:36;;;;;;;26.60;11.05;;;;;;;3.31;67.58;98020.44;3131937;28;20069;-68
2023/12/22 05:47:08;;;;;;;21.83;11.07;;;;;;;3.34;67.63;98030.59;3131646;28;20048;-68
2023/12/22 05:48:39;;;;;;;22.80;11.57;;;;;;;3.28;67.68;98014.56;3131250;28;20825;-68
2023/12/22 05:50:12;;;;;;;58.60;28.88;;;;;;;3.33;67.65;98018.59;3129681;28;20060;-67
2023/12/22 05:51:43;;;;;;;157.30;67.05;;;;;;;2.92;67.72;97943.28;3130938;28;20072;-75
2023/12/22 05:53:17;;;;;;;85.88;37.70;;;;;;;3.34;67.78;98007.44;3131669;28;20053;-68
2023/12/22 05:54:54;;;;;;;44.25;17.67;;;;;;;3.36;67.62;98000.47;3126866;28;20397;-70
2023/12/22 05:56:34;;;;;;;36.58;14.88;;;;;;;3.38;67.58;98008.94;3131497;28;20049;-76
2023/12/22 05:58:08;;;;;;;40.35;16.17;;;;;;;3.38;67.75;98016.66;3131401;28;20216;-76
2023/12/22 05:59:39;;;;;;;38.72;14.05;;;;;;;3.34;67.61;98012.56;3131817;28;20095;-83
2023/12/22 06:01:16;;;;;;;35.53;14.80;;;;;;;3.41;67.65;98024.25;3131381;28;20085;-76
2023/12/22 06:02:48;;;;;;;47.45;19.88;;;;;;;3.40;67.63;98025.16;3127304;28;20492;-79
2023/12/22 06:04:19;;;;;;;42.03;17.27;;;;;;;3.41;67.65;98016.53;3131415;28;20126;-75
2023/12/22 06:05:51;;;;;;;40.75;16.17;;;;;;;3.42;67.61;98022.50;3131151;28;20505;-65
2023/12/22 06:07:22;;;;;;;40.92;18.02;;;;;;;3.44;67.75;98022.44;3131206;28;20114;-68
2023/12/22 06:08:54;;;;;;;37.42;15.98;;;;;;;3.46;67.79;98028.34;3131390;28;20483;-68
2023/12/22 06:10:25;;;;;;;33.92;15.13;;;;;;;3.46;67.81;98026.63;3131017;28;20578;-68
2023/12/22 06:12:00;;;;;;;40.90;18.48;;;;;;;3.49;67.86;98020.50;3131495;28;20064;-73
2023/12/22 06:13:33;;;;;;;33.60;15.93;;;;;;;3.48;67.91;98019.66;3130873;28;20107;-69
2023/12/22 06:15:06;;;;;;;32.35;14.65;;;;;;;3.36;68.05;97994.47;3131371;28;20139;-72
2023/12/22 06:16:37;;;;;;;29.40;13.90;;;;;;;3.47;68.05;98017.16;3131098;28;20084;-73
2023/12/22 06:18:09;;;;;;;27.38;12.55;;;;;;;3.42;68.21;98005.31;3131610;28;20099;-76
2023/12/22 06:19:40;;;;;;;29.30;13.35;;;;;;;3.51;68.15;98021.25;3131375;28;20059;-73
2023/12/22 06:21:12;;;;;;;28.10;12.85;;;;;;;3.51;68.09;98022.09;3131535;28;20079;-72
2023/12/22 06:22:42;;;;;;;27.45;12.57;;;;;;;3.49;68.24;98031.66;3137849;28;20085;-73
2023/12/22 06:24:14;;;;;;;30.20;12.75;;;;;;;3.54;68.10;98037.41;3133743;28;20044;-66
2023/12/22 06:25:47;;;;;;;25.60;12.45;;;;;;;3.51;68.09;98031.56;3133852;28;20057;-66
2023/12/22 06:27:19;;;;;;;30.60;13.88;;;;;;;3.58;68.14;98038.94;3133046;28;20090;-68
2023/12/22 06:28:52;;;;;;;29.55;13.20;;;;;;;3.63;68.16;98051.59;3133788;28;20553;-68
2023/12/22 06:30:24;;;;;;;32.47;16.00;;;;;;;3.64;68.20;98043.00;3133712;28;20106;-67
2023/12/22 06:31:54;;;;;;;31.27;15.73;;;;;;;3.65;68.10;98044.66;3133551;28;20052;-66
2023/12/22 06:33:26;;;;;;;29.52;13.18;;;;;;;3.68;68.27;98043.69;3133550;28;20454;-69
2023/12/22 06:34:59;;;;;;;27.08;12.25;;;;;;;3.63;68.30;98026.69;3133138;28;20051;-68
2023/12/22 06:36:31;;;;;;;37.08;16.42;;;;;;;3.62;68.15;98019.03;3133465;28;20082;-69
2023/12/22 06:38:03;;;;;;;40.00;18.98;;;;;;;3.69;68.19;98025.56;3133449;28;20147;-67
2023/12/22 06:39:35;;;;;;;32.78;18.17;;;;;;;3.71;68.19;98025.50;3133651;28;20060;-66
2023/12/22 06:41:06;;;;;;;34.70;16.48;;;;;;;3.73;68.29;98028.88;3133136;28;20111;-69
2023/12/22 06:42:38;;;;;;;33.72;15.10;;;;;;;3.76;68.24;98029.56;3133554;28;20049;-66
2023/12/22 06:44:10;;;;;;;27.48;15.23;;;;;;;3.79;68.30;98034.56;3133596;28;20367;-67
2023/12/22 06:45:42;;;;;;;33.63;14.77;;;;;;;3.70;68.09;98027.25;3133489;28;20056;-66
2023/12/22 06:47:14;;;;;;;31.70;15.27;;;;;;;3.85;68.17;98047.16;3133627;28;20063;-65
2023/12/22 06:48:46;;;;;;;36.33;16.83;;;;;;;3.89;68.04;98045.25;3133241;28;20047;-68
2023/12/22 06:50:19;;;;;;;33.05;16.20;;;;;;;3.83;68.06;98030.94;3133191;28;20045;-67
2023/12/22 06:51:51;;;;;;;35.13;17.05;;;;;;;3.94;68.17;98033.03;3135323;28;20071;-67
2023/12/22 06:53:23;;;;;;;35.10;14.95;;;;;;;3.98;68.19;98028.56;3133763;28;20135;-70
2023/12/22 06:54:54;;;;;;;35.67;16.30;;;;;;;3.98;68.09;98018.25;3133534;28;20125;-67
2023/12/22 06:56:29;;;;;;;32.95;15.93;;;;;;;4.01;68.24;98025.81;3132798;28;20069;-67
2023/12/22 06:58:00;;;;;;;39.65;16.42;;;;;;;4.04;68.19;98034.25;3133498;28;20049;-68
2023/12/22 06:59:33;;;;;;;40.55;16.05;;;;;;;4.08;68.14;98029.78;3132620;28;20065;-68
2023/12/22 07:01:05;;;;;;;35.33;15.10;;;;;;;4.09;68.14;98023.75;3133540;28;20462;-67
2023/12/22 07:02:37;;;;;;;37.40;16.50;;;;;;;4.09;68.17;98013.44;3120178;28;20501;-66
2023/12/22 07:04:09;;;;;;;40.75;17.00;;;;;;;4.15;68.13;98031.16;3132851;28;20053;-65
2023/12/22 07:05:40;;;;;;;37.35;16.83;;;;;;;4.20;68.04;98033.50;3132714;28;20045;-65
2023/12/22 07:07:12;;;;;;;38.13;17.52;;;;;;;4.19;68.10;98011.25;3132891;28;20136;-68
2023/12/22 07:08:44;;;;;;;41.50;18.02;;;;;;;4.27;68.01;98029.75;3133110;28;20477;-69
2023/12/22 07:10:16;;;;;;;39.20;18.27;;;;;;;4.12;67.95;97995.25;3133267;28;20071;-71
2023/12/22 07:11:50;;;;;;;39.17;18.25;;;;;;;4.37;67.78;98027.56;3132689;28;20462;-73